Time;durP1;ratioP1;P1;durP2;ratioP2;P2;SDS_P1;SDS_P2;PMS_P1;PMS_P2;Temp;Humidity;BMP_temperature;BMP_pressure;BME280_temperature;BME280_humidity;BME280_pressure;Samples;Min_cycle;Max_cycle;Signal;HPM_P1;HPM_P2
2023/10/12 00:01:57;;;;;;;3.07;1.30;;;;;;;18.68;81.21;100353.50;5115741;28;20526;-71
2023/10/12 00:04:25;;;;;;;5.33;1.40;;;;;;;18.71;81.74;100344.59;5115002;28;20904;-72
2023/10/12 00:09:28;;;;;;;4.40;1.20;;;;;;;18.95;77.01;100353.66;5072883;28;20479;-67
2023/10/12 00:11:58;;;;;;;5.60;1.80;;;;;;;19.08;75.26;100346.84;5074685;28;20536;-68
2023/10/12 00:14:29;;;;;;;4.17;1.93;;;;;;;19.21;74.21;100356.50;5074333;28;20521;-67
2023/10/12 00:16:56;;;;;;;4.27;1.50;;;;;;;19.38;72.67;100360.72;5074638;28;20469;-67
2023/10/12 00:19:23;;;;;;;7.10;2.30;;;;;;;19.49;71.40;100349.94;5073862;28;20507;-64
2023/10/12 00:21:56;;;;;;;3.70;1.13;;;;;;;19.59;71.19;100347.34;5074200;28;20466;-65
2023/10/12 00:24:23;;;;;;;3.47;1.50;;;;;;;19.85;68.91;100343.88;5074837;28;20450;-65
2023/10/12 00:26:51;;;;;;;2.30;0.97;;;;;;;19.96;68.19;100348.72;5074046;28;20472;-65
2023/10/12 00:29:19;;;;;;;6.63;1.40;;;;;;;20.07;68.08;100347.72;5074074;28;20490;-65
2023/10/12 00:31:48;;;;;;;5.17;1.43;;;;;;;20.15;67.08;100349.41;5073972;28;20437;-65
2023/10/12 00:34:15;;;;;;;3.37;1.23;;;;;;;20.20;66.19;100351.06;5074131;28;20775;-65
2023/10/12 00:36:45;;;;;;;3.07;1.27;;;;;;;20.21;66.49;100363.63;5074192;28;20468;-65
2023/10/12 00:39:14;;;;;;;5.20;1.37;;;;;;;20.24;66.25;100365.66;5074292;28;20584;-65
2023/10/12 00:41:44;;;;;;;9.27;1.70;;;;;;;20.23;67.07;100360.50;5073835;28;20468;-65
2023/10/12 00:44:13;;;;;;;3.80;1.47;;;;;;;20.34;65.77;100364.22;5073477;28;20453;-65
2023/10/12 00:46:47;;;;;;;12.40;2.23;;;;;;;20.38;65.51;100356.78;5073445;28;21045;-65
2023/10/12 00:49:19;;;;;;;6.03;1.77;;;;;;;20.35;65.93;100377.59;5074017;28;20417;-65
2023/10/12 00:51:51;;;;;;;2.97;1.83;;;;;;;20.40;65.54;100365.47;5073853;28;20448;-65
2023/10/12 00:54:26;;;;;;;4.03;2.00;;;;;;;20.39;65.37;100363.88;5074309;28;20484;-65
2023/10/12 00:56:56;;;;;;;4.97;1.20;;;;;;;20.42;64.67;100369.44;5073738;28;20882;-65
2023/10/12 00:59:27;;;;;;;3.00;1.30;;;;;;;20.35;65.85;100357.53;5073255;28;20550;-65
2023/10/12 01:01:54;;;;;;;2.60;1.20;;;;;;;20.28;65.73;100365.72;5073966;28;20516;-65
2023/10/12 01:04:22;;;;;;;5.33;1.80;;;;;;;20.16;67.32;100361.22;5073460;28;20941;-65
2023/10/12 01:06:49;;;;;;;3.40;1.43;;;;;;;20.05;68.32;100361.03;5073858;28;20469;-65
2023/10/12 01:09:19;;;;;;;3.10;1.40;;;;;;;20.00;68.29;100368.81;5110876;28;21010;-65
2023/10/12 01:11:53;;;;;;;3.90;1.40;;;;;;;20.06;67.51;100370.91;5114080;28;20440;-65
2023/10/12 01:14:26;;;;;;;5.33;1.83;;;;;;;20.17;66.28;100368.28;5114124;28;20459;-64
2023/10/12 01:16:58;;;;;;;2.90;1.20;;;;;;;20.16;67.49;100373.00;5113606;28;20455;-64
2023/10/12 01:19:31;;;;;;;3.70;1.63;;;;;;;20.17;66.78;100369.06;5113878;28;21024;-64
2023/10/12 01:22:05;;;;;;;5.83;1.30;;;;;;;20.17;66.20;100369.06;5114249;28;20457;-64
2023/10/12 01:24:34;;;;;;;5.03;1.63;;;;;;;20.19;66.16;100362.41;5113957;28;20472;-67
2023/10/12 01:27:01;;;;;;;4.60;1.47;;;;;;;20.15;66.56;100359.63;5113951;28;20530;-64
2023/10/12 01:29:28;;;;;;;3.87;1.30;;;;;;;20.11;67.53;100354.06;5114098;28;20515;-64
2023/10/12 01:32:20;;;;;;;4.57;1.30;;;;;;;20.05;68.44;100360.25;5114218;28;20527;-64
2023/10/12 01:34:52;;;;;;;2.47;0.97;;;;;;;20.02;67.57;100350.00;5114461;28;20508;-64
2023/10/12 01:37:22;;;;;;;3.43;1.40;;;;;;;19.98;67.89;100352.72;5114110;28;20474;-64
2023/10/12 01:39:56;;;;;;;4.00;1.83;;;;;;;19.95;68.31;100360.91;5114268;28;20479;-64
2023/10/12 01:42:24;;;;;;;6.53;1.90;;;;;;;19.92;68.90;100359.66;5114044;28;20477;-64
2023/10/12 01:44:52;;;;;;;4.53;2.00;;;;;;;19.88;68.52;100369.84;5113927;28;20534;-64
2023/10/12 01:47:19;;;;;;;3.83;1.40;;;;;;;19.84;69.57;100356.03;5113711;28;20460;-64
2023/10/12 01:49:48;;;;;;;2.60;1.30;;;;;;;19.81;69.29;100367.75;5114039;28;20439;-64
2023/10/12 01:52:16;;;;;;;8.00;1.67;;;;;;;19.78;69.56;100362.19;5114043;28;20782;-64
2023/10/12 01:54:48;;;;;;;4.10;1.90;;;;;;;19.70;70.83;100358.56;5114319;28;20455;-64
2023/10/12 01:57:17;;;;;;;2.90;1.27;;;;;;;19.65;70.39;100356.91;5116212;28;20532;-64
2023/10/12 01:59:44;;;;;;;3.17;1.13;;;;;;;19.58;72.36;100365.00;5117845;28;20486;-64
2023/10/12 02:02:14;;;;;;;4.40;1.83;;;;;;;19.51;72.43;100364.88;5117585;28;20435;-64
2023/10/12 02:04:41;;;;;;;3.20;1.50;;;;;;;19.45;72.98;100377.34;5117693;28;20436;-64
2023/10/12 02:07:07;;;;;;;4.57;1.60;;;;;;;19.42;73.01;100372.56;5117193;28;20457;-64
2023/10/12 02:09:34;;;;;;;3.50;1.60;;;;;;;19.40;73.98;100378.44;5117962;28;20424;-64
2023/10/12 02:12:11;;;;;;;5.43;1.67;;;;;;;19.37;73.99;100372.88;5117720;28;20443;-64
2023/10/12 02:14:39;;;;;;;3.10;1.27;;;;;;;19.32;73.97;100381.44;5117338;28;20424;-64
2023/10/12 02:17:06;;;;;;;8.70;1.27;;;;;;;19.24;74.89;100369.50;5117524;28;20471;-64
2023/10/12 02:19:38;;;;;;;3.47;1.63;;;;;;;19.18;74.61;100384.72;5117120;28;20479;-64
2023/10/12 02:22:05;;;;;;;4.80;1.90;;;;;;;19.32;73.52;100375.94;5117229;28;20473;-64
2023/10/12 02:24:35;;;;;;;6.17;1.73;;;;;;;19.33;73.17;100375.56;5117165;28;20519;-64
2023/10/12 02:27:04;;;;;;;3.03;1.03;;;;;;;19.41;72.45;100382.78;5117071;28;20463;-64
2023/10/12 02:29:35;;;;;;;5.17;1.70;;;;;;;19.45;73.24;100379.31;5117209;28;20428;-64
2023/10/12 02:32:16;;;;;;;3.97;1.37;;;;;;;19.46;72.86;100387.16;5117815;28;20446;-64
2023/10/12 02:34:43;;;;;;;2.73;1.37;;;;;;;19.38;73.50;100389.00;5116972;28;20485;-64
2023/10/12 02:37:19;;;;;;;3.97;1.63;;;;;;;19.30;74.33;100395.53;5117015;28;20459;-64
2023/10/12 02:39:46;;;;;;;3.60;1.87;;;;;;;19.32;74.63;100386.91;5117330;28;20463;-64
2023/10/12 02:42:22;;;;;;;3.57;1.57;;;;;;;19.22;75.49;100388.31;5116784;28;20439;-64
2023/10/12 02:45:10;;;;;;;3.87;1.20;;;;;;;19.15;75.77;100390.94;5116454;28;20431;-64
2023/10/12 02:47:41;;;;;;;3.63;1.30;;;;;;;19.12;76.65;100402.63;5116771;28;20467;-65
2023/10/12 02:52:52;;;;;;;4.30;1.80;;;;;;;19.10;76.83;100405.75;5113560;28;20435;-64
2023/10/12 02:55:24;;;;;;;4.43;1.57;;;;;;;19.07;77.31;100408.41;5116267;28;20520;-64
2023/10/12 02:57:56;;;;;;;4.50;1.50;;;;;;;18.96;77.95;100412.91;5116425;28;20452;-64
2023/10/12 03:00:27;;;;;;;3.90;1.70;;;;;;;18.85;79.50;100413.47;5116867;28;20510;-64
2023/10/12 03:02:55;;;;;;;5.47;1.93;;;;;;;18.83;79.93;100406.78;5116399;28;20465;-64
2023/10/12 03:05:34;;;;;;;8.00;1.90;;;;;;;18.78;80.56;100420.78;5116653;28;20416;-64
2023/10/12 03:08:06;;;;;;;4.33;1.50;;;;;;;18.76;81.70;100406.63;5115630;28;20475;-64
2023/10/12 03:10:33;;;;;;;3.90;1.47;;;;;;;18.57;83.79;100419.16;5116555;28;20432;-64
2023/10/12 03:13:04;;;;;;;5.27;1.43;;;;;;;18.43;86.28;100421.59;5116613;28;20443;-66
2023/10/12 03:15:41;;;;;;;8.27;1.80;;;;;;;18.29;88.01;100422.06;5116103;28;20420;-64
2023/10/12 03:18:11;;;;;;;4.57;1.97;;;;;;;18.10;89.82;100428.25;5116211;28;20438;-64
2023/10/12 03:20:38;;;;;;;4.87;1.73;;;;;;;17.92;92.00;100429.00;5116093;28;20420;-64
2023/10/12 03:23:13;;;;;;;3.70;1.57;;;;;;;17.87;92.52;100436.31;5115972;28;20436;-64
2023/10/12 03:25:43;;;;;;;4.03;1.87;;;;;;;17.69;94.14;100435.06;5115888;28;20428;-64
2023/10/12 03:28:13;;;;;;;5.30;1.90;;;;;;;17.53;96.20;100434.25;5115904;28;20439;-64
2023/10/12 03:30:52;;;;;;;4.00;1.97;;;;;;;17.47;97.09;100436.44;5116266;28;20444;-64
2023/10/12 03:33:19;;;;;;;2.90;1.30;;;;;;;17.40;97.76;100437.06;5116062;28;20419;-64
2023/10/12 03:35:57;;;;;;;5.50;2.10;;;;;;;17.29;99.24;100444.19;5116069;28;20432;-65
2023/10/12 03:38:25;;;;;;;6.53;1.50;;;;;;;17.25;99.93;100443.28;5116026;28;20416;-64
2023/10/12 03:41:46;;;;;;;3.40;1.60;;;;;;;17.19;100.00;100441.97;5115726;28;20447;-65
2023/10/12 03:43:40;;;;;;;4.40;1.60;;;;;;;17.18;100.00;100456.78;5116025;28;20435;-64
2023/10/12 03:46:17;;;;;;;3.17;1.33;;;;;;;17.09;100.00;100454.22;5115905;28;20547;-64
2023/10/12 03:49:04;;;;;;;3.57;1.73;;;;;;;16.96;100.00;100457.34;5116173;28;20415;-64
2023/10/12 03:51:38;;;;;;;3.43;1.40;;;;;;;16.84;100.00;100460.91;5115863;28;20426;-64
2023/10/12 03:54:11;;;;;;;4.63;2.07;;;;;;;16.77;100.00;100457.94;5115987;28;20497;-65
2023/10/12 03:56:39;;;;;;;5.17;2.03;;;;;;;16.65;100.00;100461.50;5115256;28;20539;-65
2023/10/12 03:59:07;;;;;;;4.97;1.80;;;;;;;16.55;100.00;100462.72;5115245;28;20482;-64
2023/10/12 04:01:40;;;;;;;3.50;1.50;;;;;;;16.51;100.00;100471.97;5115567;28;20471;-64
2023/10/12 04:04:12;;;;;;;3.90;2.03;;;;;;;16.47;100.00;100484.72;5115572;28;20748;-64
2023/10/12 04:07:05;;;;;;;4.10;1.40;;;;;;;16.40;100.00;100461.50;5115070;28;20466;-64
2023/10/12 04:09:31;;;;;;;3.70;1.60;;;;;;;16.34;100.00;100468.34;5115212;28;20515;-64
2023/10/12 04:12:11;;;;;;;9.90;1.80;;;;;;;16.29;100.00;100463.13;5115404;28;20512;-64
2023/10/12 04:14:44;;;;;;;2.53;1.07;;;;;;;16.21;100.00;100474.16;5115553;28;20764;-66
2023/10/12 04:17:22;;;;;;;4.43;1.83;;;;;;;16.16;100.00;100469.72;5115010;28;20512;-67
2023/10/12 04:20:07;;;;;;;5.93;0.90;;;;;;;16.17;100.00;100474.06;5114210;28;20502;-67
2023/10/12 04:22:41;;;;;;;3.20;1.00;;;;;;;16.10;100.00;100480.06;5114883;28;20428;-67
2023/10/12 04:25:13;;;;;;;3.77;1.03;;;;;;;16.05;100.00;100468.56;5114800;28;20456;-67
2023/10/12 04:27:44;;;;;;;2.43;0.90;;;;;;;16.03;100.00;100465.41;5114725;28;20463;-67
2023/10/12 04:30:32;;;;;;;3.37;1.10;;;;;;;15.99;100.00;100473.47;5114993;28;20785;-67
2023/10/12 04:33:11;;;;;;;2.80;0.83;;;;;;;15.94;100.00;100459.22;5114320;28;20477;-67
2023/10/12 04:35:57;;;;;;;3.00;0.90;;;;;;;15.88;100.00;100473.09;5115022;28;20482;-67
2023/10/12 04:38:45;;;;;;;69.63;3.67;;;;;;;15.82;100.00;100477.19;5114367;28;20443;-67
2023/10/12 04:41:26;;;;;;;2.60;0.90;;;;;;;15.72;100.00;100471.38;5114351;28;20444;-67
2023/10/12 04:43:53;;;;;;;3.50;1.03;;;;;;;15.67;100.00;100475.13;5114536;28;20432;-67
2023/10/12 04:46:27;;;;;;;3.20;0.80;;;;;;;15.69;100.00;100480.25;5114097;28;20868;-67
2023/10/12 04:49:29;;;;;;;4.00;1.17;;;;;;;15.64;100.00;100482.06;5114259;28;20435;-67
2023/10/12 04:51:50;;;;;;;2.63;0.80;;;;;;;15.55;100.00;100478.59;5114012;28;20849;-67
2023/10/12 04:54:23;;;;;;;2.50;0.90;;;;;;;15.51;100.00;100474.94;5114498;28;20503;-67
2023/10/12 04:56:56;;;;;;;3.00;1.07;;;;;;;15.45;100.00;100483.66;5114029;28;20492;-67
2023/10/12 04:59:27;;;;;;;2.70;0.90;;;;;;;15.38;100.00;100487.75;5113930;28;20451;-67
2023/10/12 05:02:14;;;;;;;2.87;1.00;;;;;;;15.36;100.00;100481.84;5114030;28;20976;-65
2023/10/12 05:05:14;;;;;;;3.80;1.00;;;;;;;15.35;100.00;100474.75;5114332;28;20423;-64
2023/10/12 05:07:53;;;;;;;3.37;0.90;;;;;;;15.32;100.00;100464.53;5113385;28;20490;-64
2023/10/12 05:10:26;;;;;;;3.20;1.00;;;;;;;15.25;100.00;100477.91;5114093;28;20451;-65
2023/10/12 05:12:57;;;;;;;3.40;0.97;;;;;;;15.28;100.00;100471.00;5114290;28;20905;-65
2023/10/12 05:15:26;;;;;;;281.97;27.60;;;;;;;15.30;100.00;100491.34;5114268;28;20431;-65
2023/10/12 05:17:54;;;;;;;2.77;0.93;;;;;;;15.33;100.00;100487.94;5113947;28;20460;-65
2023/10/12 05:20:23;;;;;;;3.00;1.10;;;;;;;15.28;100.00;100499.09;5113631;28;20479;-65
2023/10/12 05:22:50;;;;;;;3.50;1.00;;;;;;;15.28;100.00;100498.28;5113692;28;20851;-65
2023/10/12 05:25:17;;;;;;;5.60;0.93;;;;;;;15.29;100.00;100487.03;5113946;28;20474;-65
2023/10/12 05:28:04;;;;;;;175.13;10.17;;;;;;;15.29;100.00;100487.03;5113820;28;20566;-65
2023/10/12 05:30:30;;;;;;;3.50;0.90;;;;;;;15.31;100.00;100492.94;5115481;28;20937;-67
2023/10/12 05:33:04;;;;;;;146.67;13.47;;;;;;;15.32;100.00;100491.81;5118461;28;20435;-67
2023/10/12 05:35:52;;;;;;;4.20;0.70;;;;;;;15.30;100.00;100502.25;5118404;28;20451;-67
2023/10/12 05:38:19;;;;;;;3.90;1.00;;;;;;;15.28;100.00;100512.72;5118069;28;20426;-67
2023/10/12 05:40:53;;;;;;;3.03;0.80;;;;;;;15.25;100.00;100509.84;5117932;28;20562;-66
2023/10/12 05:43:22;;;;;;;3.30;1.00;;;;;;;15.26;100.00;100509.53;5118183;28;20442;-65
2023/10/12 05:45:49;;;;;;;2.73;0.70;;;;;;;15.27;100.00;100508.41;5118533;28;20446;-66
2023/10/12 05:48:19;;;;;;;4.30;0.90;;;;;;;15.28;100.00;100503.75;5117954;28;20478;-68
2023/10/12 05:50:49;;;;;;;4.07;1.33;;;;;;;15.29;100.00;100506.13;5118111;28;20435;-66
2023/10/12 05:53:16;;;;;;;3.07;1.03;;;;;;;15.28;100.00;100520.91;5118157;28;20419;-66
2023/10/12 05:55:47;;;;;;;7.90;1.00;;;;;;;15.30;100.00;100532.28;5117900;28;20446;-65
2023/10/12 05:58:15;;;;;;;126.33;13.67;;;;;;;15.27;100.00;100530.25;5117660;28;20415;-66
2023/10/12 06:00:44;;;;;;;3.20;1.00;;;;;;;15.31;100.00;100522.97;5117521;28;20490;-66
2023/10/12 06:03:15;;;;;;;304.77;45.90;;;;;;;15.31;100.00;100509.31;5117244;28;20524;-66
2023/10/12 06:05:44;;;;;;;88.23;12.47;;;;;;;15.29;100.00;100525.22;5117423;28;20426;-66
2023/10/12 06:08:12;;;;;;;111.20;14.63;;;;;;;15.30;100.00;100532.28;5122069;22;20495;-73
2023/10/12 06:10:41;;;;;;;2.30;0.60;;;;;;;15.36;100.00;100551.97;5097035;28;20437;-73
2023/10/12 06:13:09;;;;;;;2.20;0.60;;;;;;;15.34;100.00;100544.13;5096758;28;20479;-73
2023/10/12 06:15:40;;;;;;;2.53;0.83;;;;;;;15.31;100.00;100563.88;5096612;28;20944;-73
2023/10/12 06:18:10;;;;;;;2.83;0.83;;;;;;;15.27;100.00;100584.81;5096682;28;20555;-73
2023/10/12 06:20:40;;;;;;;3.57;1.23;;;;;;;15.28;100.00;100582.88;5096713;28;20468;-73
2023/10/12 06:23:13;;;;;;;2.67;0.90;;;;;;;15.25;100.00;100562.50;5097364;28;20468;-73
2023/10/12 06:25:43;;;;;;;2.57;0.80;;;;;;;15.28;100.00;100558.31;5097114;28;20424;-73
2023/10/12 06:28:16;;;;;;;2.50;0.70;;;;;;;15.28;100.00;100559.13;5097000;28;20493;-73
2023/10/12 06:30:44;;;;;;;2.30;0.67;;;;;;;15.30;100.00;100559.56;5097024;28;20452;-73
2023/10/12 06:33:14;;;;;;;2.40;0.60;;;;;;;15.34;100.00;100571.41;5096668;28;20532;-73
2023/10/12 06:35:58;;;;;;;3.90;1.30;;;;;;;15.37;100.00;100589.88;5096863;28;20444;-73
2023/10/12 06:38:37;;;;;;;3.03;1.07;;;;;;;15.35;100.00;100592.13;5096193;28;20428;-73
2023/10/12 06:41:28;;;;;;;3.43;0.83;;;;;;;15.36;100.00;100576.53;5095954;28;20495;-73
2023/10/12 06:44:12;;;;;;;2.47;0.77;;;;;;;15.45;100.00;100595.56;5096432;28;20430;-73
2023/10/12 06:46:45;;;;;;;3.50;1.30;;;;;;;15.47;100.00;100623.34;5095931;28;20464;-72
2023/10/12 06:49:18;;;;;;;5.10;1.23;;;;;;;15.48;100.00;100628.47;5096330;28;20437;-72
2023/10/12 06:51:53;;;;;;;3.37;1.03;;;;;;;15.48;100.00;100622.22;5096571;28;20479;-72
2023/10/12 06:54:31;;;;;;;3.23;1.27;;;;;;;15.50;100.00;100630.88;5096212;28;20501;-71
2023/10/12 06:57:29;;;;;;;3.07;1.20;;;;;;;15.52;100.00;100645.00;5096406;28;20517;-71
2023/10/12 07:00:00;;;;;;;2.80;1.30;;;;;;;15.53;100.00;100647.38;5095897;28;20480;-71
2023/10/12 07:02:34;;;;;;;3.60;1.30;;;;;;;15.53;100.00;100657.50;5096060;28;20519;-71
2023/10/12 07:05:04;;;;;;;4.07;1.20;;;;;;;15.57;100.00;100650.25;5095937;28;20523;-71
2023/10/12 07:07:36;;;;;;;5.13;1.40;;;;;;;15.61;100.00;100660.16;5095678;28;20472;-71
2023/10/12 07:10:16;;;;;;;2.83;1.13;;;;;;;15.64;100.00;100661.47;5095556;28;20431;-71
2023/10/12 07:12:47;;;;;;;3.90;1.43;;;;;;;15.64;100.00;100666.94;5095802;28;20425;-72
2023/10/12 07:15:19;;;;;;;2.27;0.77;;;;;;;15.63;100.00;100668.84;5095926;28;20591;-72
2023/10/12 07:17:49;;;;;;;3.00;1.03;;;;;;;15.66;100.00;100670.13;5095827;28;20488;-71
2023/10/12 07:20:29;;;;;;;3.57;1.33;;;;;;;15.65;100.00;100679.47;5095561;28;20488;-72
2023/10/12 07:22:55;;;;;;;4.30;1.00;;;;;;;15.62;100.00;100688.28;5095615;28;20428;-73
2023/10/12 07:25:26;;;;;;;3.53;1.20;;;;;;;15.66;100.00;100678.31;5095792;28;20468;-72
2023/10/12 07:27:58;;;;;;;5.43;0.90;;;;;;;15.72;100.00;100684.41;5095168;28;20982;-71
2023/10/12 07:30:33;;;;;;;64.20;2.07;;;;;;;15.73;100.00;100680.53;5095358;28;20882;-73
2023/10/12 07:33:04;;;;;;;1999.90;999.90;;;;;;;15.65;100.00;100701.31;5095439;28;20426;-70
2023/10/12 07:35:34;;;;;;;1999.90;999.90;;;;;;;15.57;100.00;100711.13;5095383;28;20429;-75
2023/10/12 07:38:02;;;;;;;1999.90;999.90;;;;;;;15.30;100.00;100731.50;5095209;28;20461;-72
2023/10/12 07:40:35;;;;;;;782.27;375.60;;;;;;;14.71;100.00;100731.44;5095386;28;20480;-72
2023/10/12 07:43:06;;;;;;;2.70;0.50;;;;;;;14.39;100.00;100741.75;5095269;28;20425;-74
2023/10/12 07:45:37;;;;;;;2.50;0.50;;;;;;;14.10;100.00;100736.13;5095706;28;20417;-74
2023/10/12 07:48:09;;;;;;;2.00;0.50;;;;;;;14.02;100.00;100748.63;5094791;28;21148;-74
2023/10/12 07:50:45;;;;;;;2.30;0.40;;;;;;;13.96;100.00;100754.56;5095125;28;20417;-70
2023/10/12 07:53:22;;;;;;;3.80;0.50;;;;;;;13.94;100.00;100762.25;5095068;28;20809;-71
2023/10/12 07:55:55;;;;;;;2.50;0.47;;;;;;;13.82;100.00;100774.56;5094993;28;20417;-73
2023/10/12 07:58:22;;;;;;;2.70;0.40;;;;;;;13.71;100.00;100770.53;5095004;28;20474;-71
2023/10/12 08:01:02;;;;;;;2.70;0.50;;;;;;;13.79;100.00;100771.69;5094815;28;20516;-71
2023/10/12 08:03:36;;;;;;;2.70;0.50;;;;;;;13.74;100.00;100771.84;5095141;28;20944;-71
2023/10/12 08:06:15;;;;;;;2.60;0.53;;;;;;;13.70;100.00;100787.19;5095121;28;20460;-71
2023/10/12 08:08:42;;;;;;;4.50;0.43;;;;;;;13.65;100.00;100779.97;5094852;28;20451;-70
2023/10/12 08:11:09;;;;;;;2.50;0.40;;;;;;;13.63;100.00;100798.53;5094762;28;20440;-70
2023/10/12 08:13:47;;;;;;;2.50;0.40;;;;;;;13.52;100.00;100789.88;5095021;28;20451;-71
2023/10/12 08:16:15;;;;;;;4.10;0.50;;;;;;;13.43;100.00;100794.47;5094627;28;20460;-70
2023/10/12 08:21:38;;;;;;;5.73;0.60;;;;;;;13.34;100.00;100818.94;5094627;28;20473;-73
2023/10/12 08:24:09;;;;;;;2.20;0.50;;;;;;;13.36;100.00;100822.13;5094418;28;20454;-73
2023/10/12 08:32:12;;;;;;;1.90;0.40;;;;;;;13.46;100.00;100850.19;5093322;28;20437;-70
2023/10/12 08:37:27;;;;;;;2.97;0.50;;;;;;;13.50;100.00;100857.44;5092832;28;20976;-73
2023/10/12 08:40:07;;;;;;;1.80;0.33;;;;;;;13.48;100.00;100854.22;5094081;28;20480;-71
2023/10/12 08:42:41;;;;;;;3.00;0.50;;;;;;;13.56;100.00;100855.38;5094094;28;20913;-73
2023/10/12 08:45:09;;;;;;;1.80;0.30;;;;;;;13.57;100.00;100855.03;5094527;28;20881;-73
2023/10/12 08:47:44;;;;;;;1.90;0.40;;;;;;;13.61;100.00;100860.66;5094256;28;20551;-74
2023/10/12 08:53:07;;;;;;;3.60;0.60;;;;;;;13.75;100.00;100864.06;5152823;27;20514;-72
2023/10/12 08:55:36;;;;;;;2.17;0.50;;;;;;;13.77;100.00;100866.50;5152860;27;20499;-71
2023/10/12 08:58:18;;;;;;;1.90;0.40;;;;;;;13.87;100.00;100875.16;5152540;27;20976;-70
2023/10/12 09:01:07;;;;;;;2.30;0.50;;;;;;;13.92;100.00;100879.66;5152251;27;20418;-70
2023/10/12 09:03:38;;;;;;;2.27;0.50;;;;;;;14.02;100.00;100875.84;5152381;27;20442;-70
2023/10/12 09:06:19;;;;;;;3.60;0.67;;;;;;;14.01;100.00;100876.97;5152696;27;20514;-70
2023/10/12 09:08:48;;;;;;;2.10;0.50;;;;;;;14.04;100.00;100876.34;5152340;27;20505;-70
2023/10/12 09:11:13;;;;;;;4.77;1.03;;;;;;;14.04;100.00;100866.25;5152292;27;20481;-70
2023/10/12 09:13:45;;;;;;;2.97;1.00;;;;;;;14.11;100.00;100872.00;5152355;27;20514;-70
2023/10/12 09:16:14;;;;;;;2.40;0.70;;;;;;;14.16;100.00;100879.22;5152308;27;20273;-70
2023/10/12 09:18:46;;;;;;;2.83;0.60;;;;;;;14.22;100.00;100877.97;5152189;27;20438;-70
2023/10/12 09:21:28;;;;;;;3.43;0.77;;;;;;;14.28;100.00;100879.41;5152264;27;20526;-70
2023/10/12 09:24:06;;;;;;;2.30;0.57;;;;;;;14.35;100.00;100885.22;5152835;27;20418;-70
2023/10/12 09:26:33;;;;;;;2.00;0.50;;;;;;;14.37;100.00;100882.94;5151978;27;20450;-70
2023/10/12 09:29:13;;;;;;;3.40;0.90;;;;;;;14.49;100.00;100882.38;5151947;27;20878;-70
2023/10/12 09:31:53;;;;;;;4.00;0.63;;;;;;;14.62;100.00;100886.84;5151619;27;20461;-70
2023/10/12 09:37:06;;;;;;;5.27;0.70;;;;;;;14.72;100.00;100888.47;5151563;27;20440;-71
2023/10/12 09:39:35;;;;;;;2.10;0.40;;;;;;;14.74;100.00;100888.94;5151719;27;20905;-71
2023/10/12 09:42:13;;;;;;;2.17;0.50;;;;;;;14.74;100.00;100894.41;5151751;27;20434;-71
2023/10/12 09:44:41;;;;;;;2.27;0.40;;;;;;;14.77;100.00;100898.41;5151716;27;20414;-71
2023/10/12 09:47:12;;;;;;;2.00;0.40;;;;;;;14.79;100.00;100893.44;5151213;27;21056;-71
2023/10/12 09:49:44;;;;;;;3.20;0.60;;;;;;;14.83;100.00;100911.56;5151646;27;20418;-71
2023/10/12 09:52:15;;;;;;;3.43;0.60;;;;;;;14.81;100.00;100904.81;5151599;27;20482;-71
2023/10/12 09:54:49;;;;;;;1.90;0.40;;;;;;;14.76;100.00;100897.59;5151515;27;20509;-71
2023/10/12 09:57:23;;;;;;;1.90;0.40;;;;;;;14.79;100.00;100896.97;5151518;27;20462;-71
2023/10/12 09:59:53;;;;;;;2.00;0.40;;;;;;;14.78;100.00;100889.09;5151407;27;20842;-71
2023/10/12 10:02:28;;;;;;;2.63;0.60;;;;;;;14.82;100.00;100899.03;5149599;27;20807;-71
2023/10/12 10:05:01;;;;;;;9.50;0.80;;;;;;;14.91;100.00;100892.78;5137477;27;20422;-71
2023/10/12 10:07:35;;;;;;;2.23;0.50;;;;;;;15.02;100.00;100899.50;5137380;27;20554;-71
2023/10/12 10:10:06;;;;;;;7.63;1.03;;;;;;;15.18;100.00;100897.06;5137435;27;20509;-71
2023/10/12 10:12:36;;;;;;;2.07;0.53;;;;;;;15.27;100.00;100901.41;5137322;27;20473;-71
2023/10/12 10:15:14;;;;;;;4.43;0.80;;;;;;;15.33;100.00;100896.56;5137248;27;20503;-71
2023/10/12 10:17:52;;;;;;;2.20;0.50;;;;;;;15.32;100.00;100897.69;5137717;27;20455;-71
2023/10/12 10:20:50;;;;;;;2.20;0.40;;;;;;;15.34;100.00;100900.88;5137240;27;20502;-71
2023/10/12 10:23:19;;;;;;;2.20;0.50;;;;;;;15.31;100.00;100899.59;5137154;27;20488;-71
2023/10/12 10:25:57;;;;;;;2.00;0.50;;;;;;;15.30;100.00;100899.94;5137058;27;20439;-71
2023/10/12 10:28:28;;;;;;;3.70;0.77;;;;;;;15.24;100.00;100895.78;5136740;27;20890;-71
2023/10/12 10:30:59;;;;;;;5.33;0.80;;;;;;;15.20;100.00;100892.91;5137020;27;20429;-70
2023/10/12 10:33:28;;;;;;;2.03;0.43;;;;;;;15.17;100.00;100890.81;5136646;27;21004;-70
2023/10/12 10:36:00;;;;;;;2.10;0.50;;;;;;;15.15;100.00;100893.06;5136481;27;20805;-70
2023/10/12 10:38:32;;;;;;;1.90;0.37;;;;;;;15.17;100.00;100907.19;5136837;27;20495;-70
2023/10/12 10:41:09;;;;;;;1.90;0.50;;;;;;;15.18;100.00;100907.97;5136801;27;20423;-70
2023/10/12 10:43:38;;;;;;;3.77;0.70;;;;;;;15.18;100.00;100908.78;5136828;27;20425;-70
2023/10/12 10:46:09;;;;;;;1.90;0.40;;;;;;;15.20;100.00;100906.53;5137160;27;20817;-70
2023/10/12 10:48:37;;;;;;;2.00;0.50;;;;;;;15.20;100.00;100900.28;5136746;27;20450;-70
2023/10/12 10:51:07;;;;;;;2.53;0.70;;;;;;;15.24;100.00;100901.25;5136755;27;20462;-70
2023/10/12 10:53:37;;;;;;;2.77;0.83;;;;;;;15.28;100.00;100903.00;5136596;27;21027;-70
2023/10/12 10:56:15;;;;;;;2.33;0.53;;;;;;;15.34;100.00;100904.41;5136525;27;20454;-70
2023/10/12 10:58:45;;;;;;;3.10;0.87;;;;;;;15.37;100.00;100906.50;5136522;27;20419;-70
2023/10/12 11:01:14;;;;;;;1.90;0.40;;;;;;;15.41;100.00;100906.66;5136510;27;20427;-70
2023/10/12 11:03:41;;;;;;;2.00;0.50;;;;;;;15.46;100.00;100911.94;5136588;27;20430;-70
2023/10/12 11:06:21;;;;;;;2.60;0.53;;;;;;;15.49;100.00;100894.88;5136247;27;20996;-70
2023/10/12 11:08:53;;;;;;;2.17;0.60;;;;;;;15.51;100.00;100897.31;5136980;27;20426;-70
2023/10/12 11:11:26;;;;;;;2.10;0.60;;;;;;;15.59;100.00;100899.22;5136233;27;20906;-70
2023/10/12 11:13:55;;;;;;;4.57;0.63;;;;;;;15.72;100.00;100889.25;5136352;27;20434;-70
2023/10/12 11:16:28;;;;;;;3.83;0.70;;;;;;;15.92;100.00;100895.88;5135377;27;20466;-70
2023/10/12 11:18:57;;;;;;;2.40;0.63;;;;;;;16.09;100.00;100893.84;5136211;27;20475;-70
2023/10/12 11:21:26;;;;;;;2.10;0.50;;;;;;;16.39;100.00;100897.38;5135836;27;20910;-70
2023/10/12 11:23:58;;;;;;;2.27;0.60;;;;;;;16.62;99.08;100902.50;5135893;27;20445;-70
2023/10/12 11:26:26;;;;;;;3.80;0.83;;;;;;;16.90;97.19;100903.56;5136009;27;20501;-70
2023/10/12 11:29:03;;;;;;;2.70;0.80;;;;;;;16.89;93.75;100907.44;5135909;27;20439;-71
2023/10/12 11:31:31;;;;;;;2.23;0.60;;;;;;;16.89;90.64;100893.75;5135417;27;20475;-71
2023/10/12 11:33:59;;;;;;;2.80;0.90;;;;;;;16.73;89.83;100892.78;5135907;27;20438;-71
2023/10/12 11:36:26;;;;;;;2.77;0.60;;;;;;;16.81;91.28;100896.56;5135339;27;20465;-71
2023/10/12 11:39:00;;;;;;;4.47;1.13;;;;;;;16.90;93.10;100891.81;5135747;27;20427;-71
2023/10/12 11:41:28;;;;;;;2.37;0.60;;;;;;;16.77;90.35;100890.97;5135673;27;20541;-71
2023/10/12 11:43:57;;;;;;;2.67;0.70;;;;;;;16.67;89.36;100896.03;5135634;27;20441;-71
2023/10/12 11:46:25;;;;;;;2.70;0.83;;;;;;;16.56;90.59;100901.13;5135780;27;20450;-71
2023/10/12 11:49:06;;;;;;;3.77;0.73;;;;;;;16.53;90.51;100897.09;5135824;27;20494;-71
2023/10/12 11:51:39;;;;;;;1.90;0.40;;;;;;;16.54;88.80;100887.75;5135051;27;20461;-71
2023/10/12 11:54:10;;;;;;;2.10;0.60;;;;;;;16.59;90.99;100903.16;5135372;27;20419;-71
2023/10/12 11:56:44;;;;;;;2.90;0.67;;;;;;;16.68;91.59;100892.94;5135348;27;20958;-71
2023/10/12 11:59:19;;;;;;;2.90;0.70;;;;;;;16.67;90.79;100899.56;5135025;27;20419;-71
2023/10/12 12:01:51;;;;;;;2.30;0.77;;;;;;;16.68;91.09;100900.34;5134954;27;20894;-71
2023/10/12 12:04:24;;;;;;;2.00;0.47;;;;;;;16.56;92.94;100901.13;5135591;27;20513;-71
2023/10/12 12:09:30;;;;;;;4.23;0.53;;;;;;;16.69;94.34;100900.03;5112617;28;20478;-69